createdAt,value
2019-03-25T00:00:11.160Z,4.44
2019-03-25T00:01:11.147Z,4.42
2019-03-25T00:02:11.141Z,4.41
2019-03-25T00:03:11.136Z,4.42
2019-03-25T00:04:11.147Z,4.56
2019-03-25T00:05:11.103Z,4.42
2019-03-25T00:06:11.095Z,4.41
2019-03-25T00:07:11.079Z,4.42
2019-03-25T00:08:11.071Z,4.48
2019-03-25T00:09:11.064Z,4.41
2019-03-25T00:10:11.080Z,4.56
2019-03-25T00:11:11.035Z,4.48
2019-03-25T00:12:11.023Z,4.56
2019-03-25T00:13:11.024Z,4.53
2019-03-25T00:14:11.003Z,4.53
2019-03-25T00:15:11.004Z,4.56
2019-03-25T00:16:11.007Z,4.58
2019-03-25T00:17:10.970Z,4.63
2019-03-25T00:18:10.981Z,4.59
2019-03-25T00:19:10.947Z,4.58
2019-03-25T00:20:10.935Z,4.68
2019-03-25T00:21:10.927Z,4.77
2019-03-25T00:22:10.923Z,4.73
2019-03-25T00:23:10.903Z,4.73
2019-03-25T00:24:10.904Z,4.73
2019-03-25T00:25:10.883Z,4.75
2019-03-25T00:26:10.884Z,4.70
2019-03-25T00:27:10.863Z,4.77
2019-03-25T00:28:10.867Z,4.73
2019-03-25T00:29:10.835Z,4.73
2019-03-25T00:30:10.824Z,4.73
2019-03-25T00:31:10.814Z,4.77
2019-03-25T00:32:10.815Z,4.67
2019-03-25T00:33:10.794Z,4.73
2019-03-25T00:34:10.804Z,4.74
2019-03-25T00:35:10.767Z,4.71
2019-03-25T00:36:10.755Z,4.80
2019-03-25T00:37:10.745Z,4.82
2019-03-25T00:38:10.745Z,4.78
2019-03-25T00:39:10.738Z,4.77
2019-03-25T00:40:10.712Z,4.73
2019-03-25T00:41:10.699Z,4.77
2019-03-25T00:42:10.687Z,4.90
2019-03-25T00:43:10.695Z,4.94
2019-03-25T00:44:10.664Z,4.92
2019-03-25T00:45:10.675Z,4.92
2019-03-25T00:46:10.644Z,5.04
2019-03-25T00:47:10.631Z,4.97
2019-03-25T00:48:10.619Z,4.92
2019-03-25T00:49:10.622Z,4.90
2019-03-25T00:50:10.599Z,4.90
2019-03-25T00:51:10.607Z,4.92
2019-03-25T00:52:10.576Z,5.02
2019-03-25T00:53:10.563Z,4.99
2019-03-25T00:54:10.567Z,4.93
2019-03-25T00:55:10.551Z,4.97
2019-03-25T00:56:10.532Z,5.07
2019-03-25T00:57:10.547Z,4.99
2019-03-25T00:58:10.507Z,4.99
2019-03-25T00:59:10.498Z,5.08
2019-03-25T01:00:10.503Z,5.02
2019-03-25T01:01:10.475Z,5.05
2019-03-25T01:02:10.463Z,5.05
2019-03-25T01:03:10.463Z,4.99
2019-03-25T01:04:10.439Z,4.93
2019-03-25T01:05:10.428Z,5.00
2019-03-25T01:06:10.439Z,5.05
2019-03-25T01:07:10.407Z,5.04
2019-03-25T01:08:10.403Z,5.15
2019-03-25T01:09:10.399Z,5.15
2019-03-25T01:10:10.377Z,5.05
2019-03-25T01:11:10.364Z,5.10
2019-03-25T01:12:10.367Z,5.08
2019-03-25T01:13:10.343Z,5.11
2019-03-25T01:14:10.328Z,5.17
2019-03-25T01:15:10.331Z,5.11
2019-03-25T01:16:10.307Z,5.18
2019-03-25T01:17:10.297Z,5.20
2019-03-25T01:18:16.693Z,5.20
2019-03-25T01:19:11.271Z,5.14
2019-03-25T01:20:10.302Z,5.20
2019-03-25T01:21:10.264Z,5.20
2019-03-25T01:22:10.239Z,5.20
2019-03-25T01:23:10.227Z,5.23
2019-03-25T01:24:10.258Z,5.15
2019-03-25T01:25:10.211Z,5.23
2019-03-25T01:26:10.209Z,5.25
2019-03-25T01:27:10.189Z,5.25
2019-03-25T01:28:10.172Z,5.28
2019-03-25T01:29:10.159Z,5.21
2019-03-25T01:30:10.175Z,5.26
2019-03-25T01:31:10.175Z,5.26
2019-03-25T01:32:10.127Z,5.29
2019-03-25T01:33:10.133Z,5.32
2019-03-25T01:34:10.105Z,5.35
2019-03-25T01:35:10.091Z,5.32
2019-03-25T01:36:10.089Z,5.35
2019-03-25T01:37:10.087Z,5.32
2019-03-25T01:38:10.057Z,5.36
2019-03-25T01:39:10.063Z,5.33
2019-03-25T01:40:10.035Z,5.30
2019-03-25T01:41:10.028Z,5.39
2019-03-25T01:42:11.341Z,5.39
2019-03-25T01:43:10.015Z,5.44
2019-03-25T01:44:09.991Z,5.38
2019-03-25T01:45:09.987Z,5.43
2019-03-25T01:46:09.970Z,5.38
2019-03-25T01:47:09.963Z,5.44
2019-03-25T01:48:09.947Z,5.44
2019-03-25T01:49:09.945Z,5.39
2019-03-25T01:50:09.926Z,5.43
2019-03-25T01:51:09.921Z,5.54
2019-03-25T01:52:09.901Z,5.54
2019-03-25T01:53:09.890Z,5.44
2019-03-25T01:54:09.898Z,5.53
2019-03-25T01:55:13.650Z,5.46
2019-03-25T01:56:09.858Z,5.64
2019-03-25T01:57:09.850Z,5.54
2019-03-25T01:58:09.838Z,5.65
2019-03-25T01:59:09.825Z,5.66
2019-03-25T02:00:09.827Z,5.61
2019-03-25T02:01:09.803Z,5.62
2019-03-25T02:02:09.789Z,5.61
2019-03-25T02:03:09.795Z,5.64
2019-03-25T02:04:09.776Z,5.66
2019-03-25T02:05:09.754Z,5.65
2019-03-25T02:06:09.755Z,5.62
2019-03-25T02:07:09.737Z,5.68
2019-03-25T02:08:09.737Z,5.69
2019-03-25T02:09:09.715Z,5.72
2019-03-25T02:10:09.699Z,5.69
2019-03-25T02:11:09.702Z,5.69
2019-03-25T02:12:09.695Z,5.65
2019-03-25T02:13:09.667Z,5.62
2019-03-25T02:14:09.675Z,5.68
2019-03-25T02:15:09.644Z,5.54
2019-03-25T02:16:09.633Z,5.59
2019-03-25T02:17:09.639Z,5.61
2019-03-25T02:18:09.610Z,5.66
2019-03-25T02:19:09.599Z,5.53
2019-03-25T02:20:09.601Z,5.51
2019-03-25T02:21:09.577Z,5.57
2019-03-25T02:22:09.577Z,5.62
2019-03-25T02:23:10.042Z,5.46
2019-03-25T02:24:09.546Z,5.46
2019-03-25T02:25:09.531Z,5.51
2019-03-25T02:26:09.542Z,5.59
2019-03-25T02:27:09.521Z,5.46
2019-03-25T02:28:09.499Z,5.48
2019-03-25T02:29:09.503Z,5.46
2019-03-25T02:30:09.485Z,5.47
2019-03-25T02:31:09.467Z,5.46
2019-03-25T02:32:09.467Z,5.47
2019-03-25T02:33:09.442Z,5.47
2019-03-25T02:34:09.432Z,5.46
2019-03-25T02:35:09.443Z,5.61
2019-03-25T02:36:09.427Z,5.56
2019-03-25T02:37:09.399Z,5.65
2019-03-25T02:38:09.394Z,5.61
2019-03-25T02:39:09.375Z,5.66
2019-03-25T02:40:09.369Z,5.50
2019-03-25T02:41:09.350Z,5.47
2019-03-25T02:42:09.364Z,5.51
2019-03-25T02:43:09.332Z,5.50
2019-03-25T02:44:09.346Z,5.64
2019-03-25T02:45:09.312Z,5.61
2019-03-25T02:46:09.312Z,5.57
2019-03-25T02:47:09.296Z,5.59
2019-03-25T02:48:09.286Z,5.64
2019-03-25T02:49:09.266Z,5.57
2019-03-25T02:50:09.260Z,5.51
2019-03-25T02:51:09.240Z,5.62
2019-03-25T02:52:09.229Z,5.59
2019-03-25T02:53:09.233Z,5.46
2019-03-25T02:54:09.207Z,5.56
2019-03-25T02:55:09.200Z,5.54
2019-03-25T02:56:09.239Z,5.44
2019-03-25T02:57:09.175Z,5.50
2019-03-25T02:58:09.167Z,5.53
2019-03-25T02:59:09.171Z,5.50
2019-03-25T03:00:09.137Z,5.54
2019-03-25T03:01:09.128Z,5.54
2019-03-25T03:02:09.129Z,5.62
2019-03-25T03:03:09.106Z,5.57
2019-03-25T03:04:09.101Z,5.59
2019-03-25T03:05:09.092Z,5.54
2019-03-25T03:06:09.079Z,5.62
2019-03-25T03:07:09.078Z,5.68
2019-03-25T03:08:09.068Z,5.56
2019-03-25T03:09:09.063Z,5.65
2019-03-25T03:10:09.027Z,5.65
2019-03-25T03:11:09.028Z,5.69
2019-03-25T03:12:09.008Z,5.64
2019-03-25T03:13:08.993Z,5.64
2019-03-25T03:14:09.005Z,5.64
2019-03-25T03:15:08.974Z,5.65
2019-03-25T03:16:08.974Z,5.73
2019-03-25T03:17:08.952Z,5.62
2019-03-25T03:18:08.958Z,5.66
2019-03-25T03:19:08.933Z,5.72
2019-03-25T03:20:08.958Z,5.71
2019-03-25T03:21:08.905Z,5.75
2019-03-25T03:22:08.907Z,5.72
2019-03-25T03:23:08.882Z,5.66
2019-03-25T03:24:08.882Z,5.65
2019-03-25T03:25:08.860Z,5.59
2019-03-25T03:26:08.950Z,5.65
2019-03-25T03:27:08.840Z,5.57
2019-03-25T03:28:08.842Z,5.53
2019-03-25T03:29:08.815Z,5.48
2019-03-25T03:30:08.804Z,5.44
2019-03-25T03:31:08.791Z,5.39
2019-03-25T03:32:08.800Z,5.51
2019-03-25T03:33:08.771Z,5.47
2019-03-25T03:34:08.774Z,5.50
2019-03-25T03:35:08.777Z,5.61
2019-03-25T03:36:08.734Z,5.54
2019-03-25T03:37:08.728Z,5.53
2019-03-25T03:38:08.750Z,5.53
2019-03-25T03:39:08.720Z,5.50
2019-03-25T03:40:08.694Z,5.44
2019-03-25T03:41:08.680Z,5.29
2019-03-25T03:42:08.675Z,5.26
2019-03-25T03:43:08.656Z,5.12
2019-03-25T03:44:08.672Z,5.07
2019-03-25T03:45:08.667Z,4.99
2019-03-25T03:46:08.637Z,4.87
2019-03-25T03:47:08.613Z,4.94
2019-03-25T03:48:08.602Z,4.93
2019-03-25T03:49:08.594Z,4.89
2019-03-25T03:50:08.581Z,4.78
2019-03-25T03:51:08.589Z,4.78
2019-03-25T03:52:08.579Z,4.73
2019-03-25T03:53:08.548Z,4.74
2019-03-25T03:54:08.539Z,4.80
2019-03-25T03:55:08.524Z,4.71
2019-03-25T03:56:13.362Z,4.71
2019-03-25T03:57:09.527Z,4.70
2019-03-25T03:58:08.507Z,4.67
2019-03-25T03:59:08.479Z,4.62
2019-03-25T04:00:08.465Z,4.70
2019-03-25T04:01:08.458Z,4.60
2019-03-25T04:02:08.466Z,4.62
2019-03-25T04:03:08.453Z,4.60
2019-03-25T04:04:08.422Z,4.67
2019-03-25T04:05:08.410Z,4.67
2019-03-25T04:06:08.403Z,4.58
2019-03-25T04:07:08.388Z,4.59
2019-03-25T04:08:08.392Z,4.52
2019-03-25T04:09:08.391Z,4.62
2019-03-25T04:10:08.357Z,4.55
2019-03-25T04:11:08.346Z,4.58
2019-03-25T04:12:08.335Z,4.49
2019-03-25T04:13:08.322Z,4.56
2019-03-25T04:14:08.334Z,4.49
2019-03-25T04:15:08.329Z,4.53
2019-03-25T04:16:08.286Z,4.56
2019-03-25T04:17:08.273Z,4.53
2019-03-25T04:18:08.272Z,4.42
2019-03-25T04:19:08.265Z,4.38
2019-03-25T04:20:08.255Z,4.42
2019-03-25T04:21:08.250Z,4.41
2019-03-25T04:22:08.228Z,4.44
2019-03-25T04:23:08.252Z,4.48
2019-03-25T04:24:08.197Z,4.35
2019-03-25T04:25:08.185Z,4.30
2019-03-25T04:26:08.183Z,4.26
2019-03-25T04:27:08.182Z,4.30
2019-03-25T04:28:08.154Z,4.28
2019-03-25T04:29:08.142Z,4.30
2019-03-25T04:30:08.146Z,4.23
2019-03-25T04:31:08.125Z,4.20
2019-03-25T04:32:08.106Z,4.23
2019-03-25T04:33:08.135Z,4.17
2019-03-25T04:34:08.086Z,4.12
2019-03-25T04:35:08.085Z,4.14
2019-03-25T04:36:08.075Z,4.06
2019-03-25T04:37:08.053Z,3.98
2019-03-25T04:38:08.046Z,3.96
2019-03-25T04:39:08.058Z,3.99
2019-03-25T04:40:08.019Z,3.84
2019-03-25T04:41:08.022Z,3.96
2019-03-25T04:42:08.024Z,3.92
2019-03-25T04:43:08.017Z,3.83
2019-03-25T04:44:07.974Z,3.94
2019-03-25T04:45:07.984Z,3.84
2019-03-25T04:46:07.954Z,3.83
2019-03-25T04:47:07.967Z,3.84
2019-03-25T04:48:07.928Z,3.83
2019-03-25T04:49:07.917Z,3.81
2019-03-25T04:50:07.905Z,3.91
2019-03-25T04:51:07.913Z,3.87
2019-03-25T04:52:07.886Z,3.65
2019-03-25T04:53:07.885Z,3.78
2019-03-25T04:54:07.861Z,3.68
2019-03-25T04:55:07.849Z,3.73
2019-03-25T04:56:07.837Z,3.68
2019-03-25T04:57:07.854Z,3.74
2019-03-25T04:58:07.837Z,3.55
2019-03-25T04:59:07.809Z,3.66
2019-03-25T05:00:07.794Z,3.63
2019-03-25T05:01:07.785Z,3.56
2019-03-25T05:02:07.773Z,3.60
2019-03-25T05:03:07.787Z,3.56
2019-03-25T05:04:07.758Z,3.59
2019-03-25T05:05:07.738Z,3.55
2019-03-25T05:06:07.741Z,3.42
2019-03-25T05:07:07.717Z,3.48
2019-03-25T05:08:07.710Z,3.47
2019-03-25T05:09:07.694Z,3.45
2019-03-25T05:10:07.701Z,3.40
2019-03-25T05:11:07.677Z,3.36
2019-03-25T05:12:07.685Z,3.42
2019-03-25T05:13:07.651Z,3.40
2019-03-25T05:14:07.647Z,3.50
2019-03-25T05:15:07.627Z,3.47
2019-03-25T05:16:07.629Z,3.42
2019-03-25T05:17:07.630Z,3.41
2019-03-25T05:18:07.595Z,3.45
2019-03-25T05:19:07.585Z,3.41
2019-03-25T05:20:07.572Z,3.41
2019-03-25T05:21:07.560Z,3.32
2019-03-25T05:22:07.584Z,3.31
2019-03-25T05:23:07.548Z,3.32
2019-03-25T05:24:07.528Z,3.19
2019-03-25T05:25:07.518Z,3.34
2019-03-25T05:26:07.505Z,3.32
2019-03-25T05:27:07.494Z,3.25
2019-03-25T05:28:07.529Z,3.28
2019-03-25T05:29:07.486Z,3.36
2019-03-25T05:30:07.464Z,3.26
2019-03-25T05:31:07.452Z,3.31
2019-03-25T05:32:07.436Z,3.29
2019-03-25T05:33:07.425Z,3.28
2019-03-25T05:34:07.445Z,3.32
2019-03-25T05:35:07.415Z,3.41
2019-03-25T05:36:07.392Z,3.31
2019-03-25T05:37:07.395Z,3.44
2019-03-25T05:38:07.374Z,3.32
2019-03-25T05:39:07.364Z,3.34
2019-03-25T05:40:07.374Z,3.42
2019-03-25T05:41:07.337Z,3.40
2019-03-25T05:42:07.341Z,3.44
2019-03-25T05:43:07.335Z,3.36
2019-03-25T05:44:07.304Z,3.44
2019-03-25T05:45:07.296Z,3.40
2019-03-25T05:46:07.281Z,3.44
2019-03-25T05:47:07.300Z,3.36
2019-03-25T05:48:07.268Z,3.31
2019-03-25T05:49:07.260Z,3.40
2019-03-25T05:50:09.015Z,3.44
2019-03-25T05:51:07.224Z,3.32
2019-03-25T05:52:07.219Z,3.37
2019-03-25T05:53:07.215Z,3.44
2019-03-25T05:54:07.213Z,3.44
2019-03-25T05:55:07.191Z,3.41
2019-03-25T05:56:07.172Z,3.42
2019-03-25T05:57:07.159Z,3.40
2019-03-25T05:58:07.147Z,3.45
2019-03-25T05:59:07.143Z,3.53
2019-03-25T06:00:07.146Z,3.48
2019-03-25T06:01:07.116Z,3.51
2019-03-25T06:02:07.109Z,3.63
2019-03-25T06:03:07.093Z,3.53
2019-03-25T06:04:07.080Z,3.58
2019-03-25T06:05:07.117Z,3.60
2019-03-25T06:06:07.068Z,3.63
2019-03-25T06:07:07.045Z,3.76
2019-03-25T06:08:07.037Z,3.86
2019-03-25T06:09:07.023Z,3.87
2019-03-25T06:10:07.014Z,3.94
2019-03-25T06:11:07.037Z,3.95
2019-03-25T06:12:06.992Z,4.01
2019-03-25T06:13:06.982Z,3.95
2019-03-25T06:14:06.972Z,3.98
2019-03-25T06:15:06.964Z,3.94
2019-03-25T06:16:06.945Z,3.92
2019-03-25T06:17:06.972Z,3.92
2019-03-25T06:18:06.928Z,3.92
2019-03-25T06:19:06.912Z,3.77
2019-03-25T06:20:06.910Z,3.81
2019-03-25T06:21:06.892Z,3.77
2019-03-25T06:22:06.882Z,3.81
2019-03-25T06:23:06.919Z,3.66
2019-03-25T06:24:08.676Z,3.68
2019-03-25T06:25:06.847Z,3.66
2019-03-25T06:26:06.838Z,3.58
2019-03-25T06:27:14.182Z,3.60
2019-03-25T06:28:07.825Z,3.55
2019-03-25T06:29:06.826Z,3.53
2019-03-25T06:30:06.794Z,3.56
2019-03-25T06:31:06.778Z,3.51
2019-03-25T06:32:06.778Z,3.50
2019-03-25T06:33:12.467Z,3.48
2019-03-25T06:34:07.754Z,3.45
2019-03-25T06:35:08.819Z,3.55
2019-03-25T06:36:06.727Z,3.59
2019-03-25T06:37:06.723Z,3.51
2019-03-25T06:38:06.706Z,3.55
2019-03-25T06:39:06.719Z,3.59
2019-03-25T06:40:06.686Z,3.59
2019-03-25T06:41:06.670Z,3.66
2019-03-25T06:42:06.655Z,3.58
2019-03-25T06:43:06.652Z,3.62
2019-03-25T06:44:06.634Z,3.60
2019-03-25T06:45:06.646Z,3.74
2019-03-25T06:46:06.626Z,3.69
2019-03-25T06:47:06.598Z,3.63
2019-03-25T06:48:06.594Z,3.68
2019-03-25T06:49:06.578Z,3.77
2019-03-25T06:50:06.568Z,3.74
2019-03-25T06:51:06.566Z,3.76
2019-03-25T06:52:06.562Z,3.77
2019-03-25T06:53:06.534Z,3.77
2019-03-25T06:54:06.530Z,3.76
2019-03-25T06:55:06.521Z,3.77
2019-03-25T06:56:06.518Z,3.74
2019-03-25T06:57:06.494Z,3.74
2019-03-25T06:58:06.490Z,3.77
2019-03-25T06:59:06.467Z,3.78
2019-03-25T07:00:06.521Z,3.78
2019-03-25T07:01:06.446Z,3.87
2019-03-25T07:02:06.454Z,3.94
2019-03-25T07:03:06.422Z,3.98
2019-03-25T07:04:06.418Z,3.88
2019-03-25T07:05:06.399Z,3.80
2019-03-25T07:06:06.389Z,3.92
2019-03-25T07:07:06.374Z,3.91
2019-03-25T07:08:06.382Z,3.80
2019-03-25T07:09:06.354Z,3.86
2019-03-25T07:10:06.352Z,3.81
2019-03-25T07:11:06.335Z,3.80
2019-03-25T07:12:06.318Z,3.86
2019-03-25T07:13:06.313Z,3.88
2019-03-25T07:14:06.318Z,3.95
2019-03-25T07:15:06.286Z,3.98
2019-03-25T07:16:06.290Z,3.99
2019-03-25T07:17:06.262Z,3.99
2019-03-25T07:18:06.254Z,4.08
2019-03-25T07:19:06.242Z,4.12
2019-03-25T07:20:06.250Z,4.13
2019-03-25T07:21:06.222Z,4.17
2019-03-25T07:22:06.222Z,4.23
2019-03-25T07:23:06.198Z,4.28
2019-03-25T07:24:06.186Z,4.24
2019-03-25T07:25:06.186Z,4.32
2019-03-25T07:26:06.175Z,4.30
2019-03-25T07:27:06.150Z,4.30
2019-03-25T07:28:06.191Z,4.45
2019-03-25T07:29:06.131Z,4.50
2019-03-25T07:30:06.118Z,4.49
2019-03-25T07:31:06.130Z,4.49
2019-03-25T07:32:06.094Z,4.50
2019-03-25T07:33:06.090Z,4.58
2019-03-25T07:34:06.086Z,4.55
2019-03-25T07:35:06.062Z,4.52
2019-03-25T07:36:06.050Z,4.67
2019-03-25T07:37:06.062Z,4.60
2019-03-25T07:38:06.031Z,4.67
2019-03-25T07:39:06.021Z,4.73
2019-03-25T07:40:06.023Z,4.71
2019-03-25T07:41:05.998Z,4.75
2019-03-25T07:42:05.997Z,4.99
2019-03-25T07:43:05.998Z,4.99
2019-03-25T07:44:05.966Z,5.02
2019-03-25T07:45:05.950Z,4.97
2019-03-25T07:46:05.947Z,4.94
2019-03-25T07:47:05.927Z,4.90
2019-03-25T07:48:05.955Z,4.93
2019-03-25T07:49:05.906Z,4.86
2019-03-25T07:50:05.894Z,4.94
2019-03-25T07:51:05.882Z,4.97
2019-03-25T07:52:07.124Z,4.97
2019-03-25T07:53:05.862Z,4.94
2019-03-25T07:54:05.870Z,5.02
2019-03-25T07:55:05.859Z,5.11
2019-03-25T07:56:05.830Z,5.12
2019-03-25T07:57:05.834Z,5.14
2019-03-25T07:58:05.823Z,5.23
2019-03-25T07:59:05.809Z,5.18
2019-03-25T08:00:13.527Z,5.26
2019-03-25T08:01:06.771Z,5.14
2019-03-25T08:02:05.779Z,5.02
2019-03-25T08:03:05.768Z,5.08
2019-03-25T08:04:05.754Z,5.04
2019-03-25T08:05:05.726Z,5.00
2019-03-25T08:06:05.722Z,5.02
2019-03-25T08:07:05.711Z,5.04
2019-03-25T08:08:07.402Z,5.14
2019-03-25T08:09:05.688Z,5.11
2019-03-25T08:10:05.713Z,5.10
2019-03-25T08:11:05.688Z,5.21
2019-03-25T08:12:05.650Z,5.26
2019-03-25T08:13:05.676Z,5.20
2019-03-25T08:14:05.649Z,5.12
2019-03-25T08:15:05.626Z,5.10
2019-03-25T08:16:05.687Z,5.14
2019-03-25T08:17:05.619Z,5.10
2019-03-25T08:18:05.587Z,5.08
2019-03-25T08:19:05.586Z,5.14
2019-03-25T08:20:05.558Z,5.10
2019-03-25T08:21:05.562Z,5.12
2019-03-25T08:22:05.537Z,5.17
2019-03-25T08:23:05.539Z,5.12
2019-03-25T08:24:05.527Z,5.07
2019-03-25T08:25:05.517Z,4.97
2019-03-25T08:26:05.494Z,5.14
2019-03-25T08:27:05.502Z,5.10
2019-03-25T08:28:05.470Z,5.07
2019-03-25T08:29:05.461Z,4.96
2019-03-25T08:30:05.465Z,4.89
2019-03-25T08:31:05.438Z,4.99
2019-03-25T08:32:05.426Z,4.97
2019-03-25T08:33:05.430Z,4.86
2019-03-25T08:34:05.409Z,4.70
2019-03-25T08:35:05.390Z,4.77
2019-03-25T08:36:05.396Z,4.74
2019-03-25T08:37:05.374Z,4.68
2019-03-25T08:38:05.358Z,4.70
2019-03-25T08:39:05.357Z,4.73
2019-03-25T08:40:05.340Z,4.67
2019-03-25T08:41:05.324Z,4.62
2019-03-25T08:42:05.324Z,4.62
2019-03-25T08:43:05.302Z,4.71
2019-03-25T08:44:05.287Z,4.75
2019-03-25T08:45:05.283Z,4.78
2019-03-25T08:46:05.266Z,4.89
2019-03-25T08:47:05.266Z,4.92
2019-03-25T08:48:05.261Z,4.87
2019-03-25T08:49:05.234Z,4.92
2019-03-25T08:50:05.227Z,5.02
2019-03-25T08:51:05.218Z,4.99
2019-03-25T08:52:05.198Z,5.00
2019-03-25T08:53:05.206Z,5.07
2019-03-25T08:54:05.209Z,5.21
2019-03-25T08:55:05.243Z,5.25
2019-03-25T08:56:05.158Z,5.28
2019-03-25T08:57:05.146Z,5.32
2019-03-25T08:58:12.037Z,5.44
2019-03-25T08:59:06.134Z,5.43
2019-03-25T09:00:05.112Z,5.44
2019-03-25T09:01:05.102Z,5.64
2019-03-25T09:02:05.087Z,5.66
2019-03-25T09:03:05.121Z,5.68
2019-03-25T09:04:05.096Z,5.69
2019-03-25T09:05:05.053Z,5.62
2019-03-25T09:06:05.041Z,5.57
2019-03-25T09:07:05.038Z,5.59
2019-03-25T09:08:05.027Z,5.57
2019-03-25T09:09:05.017Z,5.62
2019-03-25T09:10:05.067Z,5.71
2019-03-25T09:11:07.060Z,5.90
2019-03-25T09:12:04.981Z,6.07
2019-03-25T09:13:04.966Z,6.08
2019-03-25T09:14:04.957Z,6.14
2019-03-25T09:15:04.961Z,6.22
2019-03-25T09:16:04.953Z,6.26
2019-03-25T09:17:04.917Z,6.36
2019-03-25T09:18:04.911Z,6.42
2019-03-25T09:19:04.901Z,6.30
2019-03-25T09:20:04.897Z,6.44
2019-03-25T09:21:04.873Z,6.38
2019-03-25T09:22:04.869Z,6.38
2019-03-25T09:23:04.880Z,6.39
2019-03-25T09:24:04.840Z,6.36
2019-03-25T09:25:04.837Z,6.31
2019-03-25T09:26:04.823Z,6.30
2019-03-25T09:27:04.805Z,6.22
2019-03-25T09:28:04.817Z,6.27
2019-03-25T09:29:04.803Z,6.24
2019-03-25T09:30:04.773Z,6.14
2019-03-25T09:31:04.761Z,6.12
2019-03-25T09:32:04.774Z,6.09
2019-03-25T09:33:04.737Z,6.14
2019-03-25T09:34:04.737Z,6.08
2019-03-25T09:35:04.729Z,6.12
2019-03-25T09:36:04.871Z,6.19
2019-03-25T09:37:04.693Z,6.44
2019-03-25T09:38:04.693Z,6.46
2019-03-25T09:39:04.673Z,6.54
2019-03-25T09:40:04.673Z,6.52
2019-03-25T09:41:04.653Z,6.49
2019-03-25T09:42:04.636Z,6.66
2019-03-25T09:43:04.652Z,6.49
2019-03-25T09:44:04.617Z,6.52
2019-03-25T09:45:04.613Z,6.49
2019-03-25T09:46:04.609Z,6.51
2019-03-25T09:47:04.581Z,6.44
2019-03-25T09:48:04.569Z,6.36
2019-03-25T09:49:04.581Z,6.26
2019-03-25T09:50:04.546Z,6.28
2019-03-25T09:51:04.537Z,6.07
2019-03-25T09:52:04.545Z,6.02
2019-03-25T09:53:04.515Z,5.99
2019-03-25T09:54:04.500Z,6.02
2019-03-25T09:55:04.505Z,5.97
2019-03-25T09:56:04.481Z,5.98
2019-03-25T09:57:04.473Z,6.01
2019-03-25T09:58:04.483Z,6.09
2019-03-25T09:59:04.455Z,6.04
2019-03-25T10:00:04.449Z,6.08
2019-03-25T10:01:04.421Z,6.07
2019-03-25T10:02:04.412Z,6.07
2019-03-25T10:03:04.401Z,6.05
2019-03-25T10:04:04.404Z,5.93
2019-03-25T10:05:04.377Z,5.99
2019-03-25T10:06:04.380Z,5.98
2019-03-25T10:07:04.363Z,6.08
2019-03-25T10:08:04.347Z,6.08
2019-03-25T10:09:04.336Z,6.19
2019-03-25T10:10:04.330Z,6.33
2019-03-25T10:11:04.321Z,6.46
2019-03-25T10:12:04.296Z,6.69
2019-03-25T10:13:04.290Z,6.84
2019-03-25T10:14:04.295Z,6.78
2019-03-25T10:15:04.294Z,6.78
2019-03-25T10:16:04.284Z,6.88
2019-03-25T10:17:04.245Z,7.06
2019-03-25T10:18:04.233Z,7.20
2019-03-25T10:19:04.226Z,7.56
2019-03-25T10:20:04.213Z,7.50
2019-03-25T10:21:04.201Z,7.54
2019-03-25T10:22:04.225Z,7.42
2019-03-25T10:23:04.185Z,7.42
2019-03-25T10:24:04.188Z,7.32
2019-03-25T10:25:04.156Z,7.07
2019-03-25T10:26:04.171Z,6.84
2019-03-25T10:27:04.129Z,6.60
2019-03-25T10:28:04.133Z,6.33
2019-03-25T10:29:04.108Z,5.99
2019-03-25T10:30:04.111Z,5.84
2019-03-25T10:31:04.096Z,5.75
2019-03-25T10:32:04.072Z,5.59
2019-03-25T10:33:04.061Z,5.62
2019-03-25T10:34:04.067Z,5.62
2019-03-25T10:35:04.040Z,5.71
2019-03-25T10:36:04.050Z,5.59
2019-03-25T10:37:04.018Z,5.69
2019-03-25T10:38:04.007Z,5.66
2019-03-25T10:39:03.992Z,5.62
2019-03-25T10:40:03.997Z,5.64
2019-03-25T10:41:03.973Z,5.65
2019-03-25T10:42:03.973Z,5.65
2019-03-25T10:43:03.972Z,5.59
2019-03-25T10:44:03.939Z,5.56
2019-03-25T10:45:03.930Z,5.56
2019-03-25T10:46:03.933Z,5.62
2019-03-25T10:47:03.904Z,5.73
2019-03-25T10:48:03.892Z,5.80
2019-03-25T10:49:03.896Z,6.11
2019-03-25T10:50:03.868Z,6.14
2019-03-25T10:51:03.861Z,6.31
2019-03-25T10:52:03.864Z,6.30
2019-03-25T10:53:03.840Z,6.19
2019-03-25T10:54:03.824Z,6.33
2019-03-25T10:55:03.827Z,6.20
2019-03-25T10:56:03.812Z,6.35
2019-03-25T10:57:03.796Z,6.30
2019-03-25T10:58:03.796Z,6.27
2019-03-25T10:59:03.769Z,6.35
2019-03-25T11:00:03.758Z,6.44
2019-03-25T11:01:03.791Z,6.42
2019-03-25T11:02:03.752Z,6.36
2019-03-25T11:03:03.729Z,6.39
2019-03-25T11:04:03.713Z,6.46
2019-03-25T11:05:03.700Z,6.64
2019-03-25T11:06:03.687Z,6.89
2019-03-25T11:07:03.825Z,7.00
2019-03-25T11:08:03.687Z,7.05
2019-03-25T11:09:03.658Z,7.38
2019-03-25T11:10:03.644Z,7.57
2019-03-25T11:11:03.645Z,7.85
2019-03-25T11:12:03.620Z,7.91
2019-03-25T11:13:03.620Z,7.90
2019-03-25T11:14:03.618Z,7.79
2019-03-25T11:15:03.589Z,7.75
2019-03-25T11:16:03.576Z,7.77
2019-03-25T11:17:03.566Z,7.72
2019-03-25T11:18:05.648Z,7.50
2019-03-25T11:19:03.552Z,6.93
2019-03-25T11:20:03.545Z,6.51
2019-03-25T11:21:03.522Z,6.12
2019-03-25T11:22:03.521Z,5.84
2019-03-25T11:23:03.496Z,5.51
2019-03-25T11:24:03.492Z,5.28
2019-03-25T11:25:03.480Z,5.07
2019-03-25T11:26:03.465Z,5.00
2019-03-25T11:27:03.472Z,4.93
2019-03-25T11:28:03.443Z,4.92
2019-03-25T11:29:08.359Z,4.97
2019-03-25T11:30:05.673Z,4.93
2019-03-25T11:31:03.413Z,4.96
2019-03-25T11:32:03.410Z,4.97
2019-03-25T11:33:03.416Z,4.90
2019-03-25T11:34:03.381Z,5.08
2019-03-25T11:35:03.377Z,5.25
2019-03-25T11:36:03.365Z,5.41
2019-03-25T11:37:03.364Z,5.61
2019-03-25T11:38:03.336Z,6.02
2019-03-25T11:39:03.320Z,6.12
2019-03-25T11:40:03.313Z,6.49
2019-03-25T11:41:03.300Z,6.70
2019-03-25T11:42:03.288Z,6.81
2019-03-25T11:43:03.294Z,6.96
2019-03-25T11:44:03.261Z,6.84
2019-03-25T11:45:03.254Z,6.93
2019-03-25T11:46:03.244Z,7.02
2019-03-25T11:47:03.247Z,6.89
2019-03-25T11:48:03.241Z,6.81
2019-03-25T11:49:03.217Z,6.81
2019-03-25T11:50:03.193Z,6.87
2019-03-25T11:51:03.186Z,6.81
2019-03-25T11:52:03.173Z,6.75
2019-03-25T11:53:03.166Z,6.77
2019-03-25T11:54:03.164Z,6.70
2019-03-25T11:55:03.153Z,6.66
2019-03-25T11:56:03.133Z,6.51
2019-03-25T11:57:03.121Z,6.36
2019-03-25T11:58:03.105Z,6.26
2019-03-25T11:59:03.254Z,6.26
2019-03-25T12:00:03.081Z,6.27
2019-03-25T12:01:03.084Z,6.30
2019-03-25T12:02:03.061Z,6.35
2019-03-25T12:03:03.049Z,6.44
2019-03-25T12:04:03.038Z,6.57
2019-03-25T12:05:03.043Z,6.74
2019-03-25T12:06:03.017Z,6.79
2019-03-25T12:07:03.061Z,6.95
2019-03-25T12:08:02.993Z,7.07
2019-03-25T12:09:02.986Z,7.21
2019-03-25T12:10:02.969Z,7.32
2019-03-25T12:11:02.973Z,7.39
2019-03-25T12:12:02.950Z,7.51
2019-03-25T12:13:02.941Z,7.50
2019-03-25T12:14:02.933Z,7.63
2019-03-25T12:15:02.929Z,7.69
2019-03-25T12:16:02.901Z,7.66
2019-03-25T12:17:02.909Z,7.69
2019-03-25T12:18:02.882Z,7.77
2019-03-25T12:19:02.869Z,7.79
2019-03-25T12:20:02.858Z,8.00
2019-03-25T12:21:02.850Z,8.15
2019-03-25T12:22:02.847Z,8.33
2019-03-25T12:23:02.825Z,8.34
2019-03-25T12:24:02.816Z,8.42
2019-03-25T12:25:02.814Z,8.55
2019-03-25T12:26:02.793Z,8.58
2019-03-25T12:27:02.793Z,8.55
2019-03-25T12:28:02.782Z,8.66
2019-03-25T12:29:02.762Z,8.63
2019-03-25T12:30:02.751Z,8.70
2019-03-25T12:31:02.734Z,8.89
2019-03-25T12:32:02.725Z,8.94
2019-03-25T12:33:04.334Z,8.92
2019-03-25T12:34:02.751Z,8.91
2019-03-25T12:35:02.694Z,9.00
2019-03-25T12:36:02.681Z,9.06
2019-03-25T12:37:02.665Z,9.19
2019-03-25T12:38:02.653Z,9.39
2019-03-25T12:39:02.673Z,9.40
2019-03-25T12:40:02.633Z,9.28
2019-03-25T12:41:02.625Z,9.25
2019-03-25T12:42:02.612Z,9.23
2019-03-25T12:43:02.600Z,9.47
2019-03-25T12:44:02.588Z,9.50
2019-03-25T12:45:02.604Z,9.40
2019-03-25T12:46:02.573Z,9.50
2019-03-25T12:47:02.563Z,9.50
2019-03-25T12:48:02.544Z,9.55
2019-03-25T12:49:02.533Z,9.50
2019-03-25T12:50:02.521Z,9.69
2019-03-25T12:51:02.584Z,9.79
2019-03-25T12:52:02.507Z,9.79
2019-03-25T12:53:02.508Z,9.80
2019-03-25T12:54:02.480Z,9.51
2019-03-25T12:55:02.465Z,9.46
2019-03-25T12:56:02.486Z,9.25
2019-03-25T12:57:02.446Z,9.14
2019-03-25T12:58:02.433Z,9.06
2019-03-25T12:59:02.419Z,8.78
2019-03-25T13:00:02.417Z,8.61
2019-03-25T13:01:02.399Z,8.44
2019-03-25T13:02:02.400Z,8.41
2019-03-25T13:03:02.377Z,8.44
2019-03-25T13:04:02.364Z,8.48
2019-03-25T13:05:02.354Z,8.46
2019-03-25T13:06:02.344Z,8.56
2019-03-25T13:07:02.354Z,8.74
2019-03-25T13:08:02.341Z,8.92
2019-03-25T13:09:02.309Z,8.97
2019-03-25T13:10:02.299Z,8.97
2019-03-25T13:11:02.285Z,8.95
2019-03-25T13:12:02.273Z,8.89
2019-03-25T13:13:02.266Z,8.88
2019-03-25T13:14:02.277Z,8.82
2019-03-25T13:15:02.241Z,8.87
2019-03-25T13:16:02.230Z,8.84
2019-03-25T13:17:02.221Z,8.88
2019-03-25T13:18:02.205Z,8.73